Time;durP1;ratioP1;P1;durP2;ratioP2;P2;SDS_P1;SDS_P2;PMS_P1;PMS_P2;Temp;Humidity;BMP_temperature;BMP_pressure;BME280_temperature;BME280_humidity;BME280_pressure;Samples;Min_cycle;Max_cycle;Signal;HPM_P1;HPM_P2
2022/03/19 00:00:42;;;;;;;30.88;12.07;;;;;;;;;;8463084;28;20376;-75
2022/03/19 00:04:46;;;;;;;28.00;13.45;;;;;;;;;;8462912;28;20120;-75
2022/03/19 00:08:49;;;;;;;36.80;14.57;;;;;;;;;;8461999;28;20475;-75
2022/03/19 00:12:52;;;;;;;59.33;18.35;;;;;;;;;;8462345;28;20052;-76
2022/03/19 00:16:54;;;;;;;42.58;14.40;;;;;;;;;;8462344;28;20495;-75
2022/03/19 00:20:58;;;;;;;29.65;13.32;;;;;;;;;;8462837;28;20039;-75
2022/03/19 00:25:01;;;;;;;31.85;12.60;;;;;;;;;;8462849;28;20040;-76
2022/03/19 00:29:05;;;;;;;23.95;10.80;;;;;;;;;;8448785;28;20035;-76
2022/03/19 00:33:09;;;;;;;28.55;11.02;;;;;;;;;;8442995;28;20040;-77
2022/03/19 00:37:13;;;;;;;31.15;11.07;;;;;;;;;;8460694;28;20130;-76
2022/03/19 00:41:15;;;;;;;22.27;11.13;;;;;;;;;;8458645;28;20043;-75
2022/03/19 00:45:18;;;;;;;25.65;11.23;;;;;;;;;;8466230;28;20048;-75
2022/03/19 00:49:21;;;;;;;71.18;18.92;;;;;;;;;;8468769;28;20134;-75
2022/03/19 00:53:25;;;;;;;27.65;10.65;;;;;;;;;;8468569;28;20055;-74
2022/03/19 00:57:27;;;;;;;29.20;12.50;;;;;;;;;;8468241;28;20483;-75
2022/03/19 01:01:30;;;;;;;25.58;9.93;;;;;;;;;;8468897;28;20040;-75
2022/03/19 01:05:34;;;;;;;28.52;11.93;;;;;;;;;;8465094;28;20050;-76
2022/03/19 01:09:37;;;;;;;28.88;9.75;;;;;;;;;;8467301;28;20039;-77
2022/03/19 01:13:40;;;;;;;27.23;10.80;;;;;;;;;;8468055;28;20069;-75
2022/03/19 01:17:43;;;;;;;19.40;9.48;;;;;;;;;;8467495;28;20574;-76
2022/03/19 01:21:45;;;;;;;30.80;10.60;;;;;;;;;;8467628;28;20047;-75
2022/03/19 01:25:49;;;;;;;23.65;11.07;;;;;;;;;;8468074;28;20407;-76
2022/03/19 01:29:52;;;;;;;32.22;10.85;;;;;;;;;;8467807;28;20128;-75
2022/03/19 01:33:54;;;;;;;25.20;11.55;;;;;;;;;;8467215;28;20043;-76
2022/03/19 01:37:57;;;;;;;28.92;11.35;;;;;;;;;;8467389;28;20058;-76
2022/03/19 01:42:01;;;;;;;26.42;11.95;;;;;;;;;;8467010;28;20044;-76
2022/03/19 01:46:04;;;;;;;22.88;10.48;;;;;;;;;;8466804;28;20048;-76
2022/03/19 01:50:08;;;;;;;20.77;10.70;;;;;;;;;;8466227;28;20418;-75
2022/03/19 01:54:11;;;;;;;20.48;10.55;;;;;;;;;;8467465;28;20040;-76
2022/03/19 01:58:15;;;;;;;23.25;9.98;;;;;;;;;;8466553;28;20047;-75
2022/03/19 02:02:19;;;;;;;21.20;10.13;;;;;;;;;;8466317;28;20162;-76
2022/03/19 02:06:24;;;;;;;23.40;11.00;;;;;;;;;;8466432;28;20075;-75
2022/03/19 02:10:26;;;;;;;19.83;10.93;;;;;;;;;;8466395;28;20051;-75
2022/03/19 02:14:34;;;;;;;25.90;10.32;;;;;;;;;;8466542;28;20057;-77
2022/03/19 02:18:37;;;;;;;23.35;10.82;;;;;;;;;;8465780;28;20051;-75
2022/03/19 02:22:39;;;;;;;22.88;12.70;;;;;;;;;;8465961;28;20052;-75
2022/03/19 02:26:44;;;;;;;28.48;13.15;;;;;;;;;;8465787;28;20096;-76
2022/03/19 02:30:46;;;;;;;29.67;12.40;;;;;;;;;;8465488;28;20050;-76
2022/03/19 02:34:49;;;;;;;31.10;14.13;;;;;;;;;;8465899;28;20052;-77
2022/03/19 02:38:51;;;;;;;26.83;12.80;;;;;;;;;;8465639;28;20407;-77
2022/03/19 02:42:57;;;;;;;26.25;11.45;;;;;;;;;;8465422;28;20048;-77
2022/03/19 02:47:02;;;;;;;33.58;12.80;;;;;;;;;;8465103;28;20122;-77
2022/03/19 02:51:06;;;;;;;23.63;11.18;;;;;;;;;;8465128;28;20051;-75
2022/03/19 02:55:09;;;;;;;35.67;14.63;;;;;;;;;;8465152;28;20403;-76
2022/03/19 02:59:15;;;;;;;27.75;14.38;;;;;;;;;;8464323;28;20066;-76
2022/03/19 03:03:17;;;;;;;31.25;13.45;;;;;;;;;;8464370;28;20055;-76
2022/03/19 03:07:20;;;;;;;28.40;13.00;;;;;;;;;;8464713;28;20043;-76
2022/03/19 03:11:22;;;;;;;44.55;16.35;;;;;;;;;;8451011;28;20052;-76
2022/03/19 03:15:27;;;;;;;49.55;19.60;;;;;;;;;;8427894;28;20048;-76
2022/03/19 03:19:29;;;;;;;41.85;17.35;;;;;;;;;;8428937;28;20048;-76
2022/03/19 03:23:32;;;;;;;26.38;13.40;;;;;;;;;;8430577;28;20049;-76
2022/03/19 03:27:35;;;;;;;27.48;12.02;;;;;;;;;;8429933;28;20044;-76
2022/03/19 03:31:39;;;;;;;26.20;14.27;;;;;;;;;;8429710;28;20059;-74
2022/03/19 03:35:41;;;;;;;35.80;14.07;;;;;;;;;;8429700;28;20123;-76
2022/03/19 03:39:44;;;;;;;27.50;12.00;;;;;;;;;;8429434;28;20097;-75
2022/03/19 03:43:47;;;;;;;32.10;11.02;;;;;;;;;;8429989;28;20040;-76
2022/03/19 03:47:51;;;;;;;22.15;8.93;;;;;;;;;;8429382;28;20044;-75
2022/03/19 03:51:54;;;;;;;19.05;9.30;;;;;;;;;;8429485;28;20040;-74
2022/03/19 03:55:57;;;;;;;27.25;10.70;;;;;;;;;;8429125;28;20105;-77
2022/03/19 04:00:01;;;;;;;28.65;11.25;;;;;;;;;;8428886;28;20105;-76
2022/03/19 04:04:05;;;;;;;26.35;11.20;;;;;;;;;;8428880;28;20048;-76
2022/03/19 04:08:08;;;;;;;26.52;11.25;;;;;;;;;;8429253;28;20047;-76
2022/03/19 04:12:11;;;;;;;23.73;10.57;;;;;;;;;;8429140;28;20048;-75
2022/03/19 04:16:14;;;;;;;27.92;11.35;;;;;;;;;;8428515;28;20048;-74
2022/03/19 04:20:18;;;;;;;21.55;11.57;;;;;;;;;;8429170;28;20104;-76
2022/03/19 04:24:20;;;;;;;30.27;12.50;;;;;;;;;;8429117;28;20074;-77
2022/03/19 04:28:23;;;;;;;24.77;10.88;;;;;;;;;;8429129;28;20048;-76
2022/03/19 04:32:25;;;;;;;33.17;10.65;;;;;;;;;;8428497;28;20044;-75
2022/03/19 04:36:32;;;;;;;25.60;10.85;;;;;;;;;;8428507;28;20060;-75
2022/03/19 04:40:35;;;;;;;23.83;10.70;;;;;;;;;;8428362;28;20044;-75
2022/03/19 04:44:38;;;;;;;25.88;10.98;;;;;;;;;;8428789;28;20044;-74
2022/03/19 04:48:42;;;;;;;29.23;12.20;;;;;;;;;;8428231;28;20123;-75
2022/03/19 04:52:47;;;;;;;19.95;10.48;;;;;;;;;;8428268;28;20089;-75
2022/03/19 04:56:49;;;;;;;30.15;11.73;;;;;;;;;;8428301;28;20059;-74
2022/03/19 05:00:52;;;;;;;22.50;10.20;;;;;;;;;;8428460;28;20052;-77
2022/03/19 05:04:55;;;;;;;25.17;12.40;;;;;;;;;;8428589;28;20044;-75
2022/03/19 05:13:18;;;;;;;26.40;10.38;;;;;;;;;;8428509;28;20388;-75
2022/03/19 05:17:21;;;;;;;23.73;11.63;;;;;;;;;;8447673;28;20064;-75
2022/03/19 05:21:23;;;;;;;24.80;12.02;;;;;;;;;;8459893;28;20043;-76
2022/03/19 05:25:28;;;;;;;34.60;12.55;;;;;;;;;;8462301;28;20039;-75
2022/03/19 05:29:32;;;;;;;36.67;16.92;;;;;;;;;;8465946;28;20054;-76
2022/03/19 05:37:54;;;;;;;24.13;11.20;;;;;;;;;;8467794;28;20047;-75
2022/03/19 05:41:59;;;;;;;26.73;10.35;;;;;;;;;;8467445;28;20047;-76
2022/03/19 05:46:01;;;;;;;32.45;15.85;;;;;;;;;;8467051;28;20040;-76
2022/03/19 05:50:04;;;;;;;37.03;20.83;;;;;;;;;;8464967;28;20452;-75
2022/03/19 05:54:06;;;;;;;49.90;22.27;;;;;;;;;;8458316;28;20123;-76
2022/03/19 05:58:11;;;;;;;48.55;22.95;;;;;;;;;;8460808;28;20422;-75
2022/03/19 06:02:13;;;;;;;39.85;20.05;;;;;;;;;;8458204;28;20044;-76
2022/03/19 06:06:16;;;;;;;41.35;17.25;;;;;;;;;;8463921;28;20054;-76
2022/03/19 06:10:19;;;;;;;65.43;24.85;;;;;;;;;;8465132;28;20514;-76
2022/03/19 06:14:23;;;;;;;41.38;19.25;;;;;;;;;;8462207;28;20040;-75
2022/03/19 06:18:26;;;;;;;47.22;19.58;;;;;;;;;;8456746;28;20060;-75
2022/03/19 06:22:29;;;;;;;60.63;24.10;;;;;;;;;;8460653;28;20046;-76
2022/03/19 06:26:31;;;;;;;60.00;19.98;;;;;;;;;;8462768;28;20127;-75
2022/03/19 06:30:37;;;;;;;66.47;25.33;;;;;;;;;;8456529;28;20689;-77
2022/03/19 06:34:40;;;;;;;42.15;19.73;;;;;;;;;;8461539;28;20044;-76
2022/03/19 06:38:43;;;;;;;58.70;22.23;;;;;;;;;;8464660;28;20135;-76
2022/03/19 06:42:45;;;;;;;50.83;19.27;;;;;;;;;;8467016;28;20424;-76
2022/03/19 06:46:49;;;;;;;111.13;38.03;;;;;;;;;;8467028;28;20116;-76
2022/03/19 06:50:53;;;;;;;62.47;24.80;;;;;;;;;;8466288;28;20059;-76
2022/03/19 06:54:56;;;;;;;55.67;22.70;;;;;;;;;;8466457;28;20422;-76
2022/03/19 06:58:58;;;;;;;56.75;25.77;;;;;;;;;;8466047;28;20051;-76
2022/03/19 07:03:03;;;;;;;42.35;20.20;;;;;;;;;;8466435;28;20392;-76
2022/03/19 07:07:05;;;;;;;47.15;22.23;;;;;;;;;;8465652;28;20093;-76
2022/03/19 07:11:08;;;;;;;40.65;22.15;;;;;;;;;;8465573;28;20074;-76
2022/03/19 07:15:14;;;;;;;31.42;18.25;;;;;;;;;;8463479;28;20067;-76
2022/03/19 07:19:34;;;;;;;32.78;17.65;;;;;;;;;;8457248;28;20051;-76
2022/03/19 07:24:04;;;;;;;31.33;17.58;;;;;;;;;;8459994;28;20043;-74
2022/03/19 07:28:24;;;;;;;72.60;28.05;;;;;;;;;;8462587;28;20441;-76
2022/03/19 07:32:28;;;;;;;62.92;26.98;;;;;;;;;;8457470;28;20075;-77
2022/03/19 07:36:33;;;;;;;174.30;57.92;;;;;;;;;;8463846;28;20044;-76
2022/03/19 07:44:56;;;;;;;124.90;46.60;;;;;;;;;;8463663;28;20054;-76
2022/03/19 07:49:00;;;;;;;189.98;68.88;;;;;;;;;;8463502;28;20451;-75
2022/03/19 07:53:04;;;;;;;156.18;67.53;;;;;;;;;;8464864;28;20043;-76
2022/03/19 07:57:10;;;;;;;117.45;54.40;;;;;;;;;;8464987;28;20071;-76
2022/03/19 08:01:13;;;;;;;91.63;47.30;;;;;;;;;;8462184;28;20371;-76
2022/03/19 08:05:18;;;;;;;35.40;17.48;;;;;;;;;;8447848;28;20534;-77
2022/03/19 08:09:38;;;;;;;27.58;15.77;;;;;;;;;;8456003;28;20052;-77
2022/03/19 08:13:56;;;;;;;21.40;13.85;;;;;;;;;;8461126;28;20404;-76
2022/03/19 08:18:10;;;;;;;24.52;14.40;;;;;;;;;;8468389;28;20057;-76
2022/03/19 08:22:26;;;;;;;79.70;27.08;;;;;;;;;;8482947;28;20044;-75
2022/03/19 08:26:44;;;;;;;28.63;16.17;;;;;;;;;;8450919;28;20071;-76
2022/03/19 08:30:56;;;;;;;27.75;16.65;;;;;;;;;;8464277;28;20125;-76
2022/03/19 08:35:05;;;;;;;22.52;14.10;;;;;;;;;;8437942;28;20098;-76
2022/03/19 08:43:54;;;;;;;64.43;21.35;;;;;;;;;;8462523;28;20132;-76
2022/03/19 08:48:09;;;;;;;18.67;12.13;;;;;;;;;;8462714;28;20051;-76
2022/03/19 08:52:22;;;;;;;130.18;54.92;;;;;;;;;;8463184;28;20161;-73
2022/03/19 08:56:35;;;;;;;88.85;29.60;;;;;;;;;;8463112;28;20048;-73
2022/03/19 09:00:44;;;;;;;28.42;14.95;;;;;;;;;;8458486;28;20058;-76
2022/03/19 09:04:47;;;;;;;21.60;11.82;;;;;;;;;;8462905;28;20047;-76
2022/03/19 09:08:51;;;;;;;16.95;10.63;;;;;;;;;;8465136;28;20047;-77
2022/03/19 09:12:55;;;;;;;17.77;10.48;;;;;;;;;;8468215;28;20040;-75
2022/03/19 09:17:01;;;;;;;16.55;10.95;;;;;;;;;;8468374;28;20086;-76
2022/03/19 09:21:05;;;;;;;18.90;11.60;;;;;;;;;;8468928;28;20055;-75
2022/03/19 09:25:09;;;;;;;22.35;13.43;;;;;;;;;;8468944;28;20047;-76
2022/03/19 09:29:14;;;;;;;18.58;11.40;;;;;;;;;;8468708;28;20039;-76
2022/03/19 09:33:20;;;;;;;17.58;9.73;;;;;;;;;;8468857;28;20101;-75
2022/03/19 09:37:22;;;;;;;15.88;10.27;;;;;;;;;;8469200;28;20539;-75
2022/03/19 09:41:26;;;;;;;14.98;9.05;;;;;;;;;;8468964;28;20092;-77
2022/03/19 09:45:29;;;;;;;16.48;10.20;;;;;;;;;;8468686;28;20044;-76
2022/03/19 09:49:34;;;;;;;16.25;10.32;;;;;;;;;;8468252;28;20104;-76
2022/03/19 09:53:37;;;;;;;18.75;9.68;;;;;;;;;;8468600;28;20043;-77
2022/03/19 09:57:40;;;;;;;20.73;10.57;;;;;;;;;;8467910;28;20039;-76
2022/03/19 10:01:43;;;;;;;18.17;9.77;;;;;;;;;;8467325;28;20453;-76
2022/03/19 10:10:12;;;;;;;23.52;12.13;;;;;;;;;;8467896;28;20475;-76
2022/03/19 10:14:21;;;;;;;18.77;10.43;;;;;;;;;;8468232;28;20543;-75
2022/03/19 10:18:28;;;;;;;17.33;9.40;;;;;;;;;;8460255;28;20472;-76
2022/03/19 10:22:34;;;;;;;19.90;11.82;;;;;;;;;;8465741;28;20459;-76
2022/03/19 10:26:38;;;;;;;20.38;10.73;;;;;;;;;;8467086;28;20047;-77
2022/03/19 10:30:42;;;;;;;48.72;16.58;;;;;;;;;;8466840;28;20051;-75
2022/03/19 10:34:46;;;;;;;46.20;17.65;;;;;;;;;;8466871;28;20039;-76
2022/03/19 10:38:51;;;;;;;525.10;122.43;;;;;;;;;;8466819;28;20054;-76
2022/03/19 10:42:58;;;;;;;451.20;96.03;;;;;;;;;;8466689;28;20050;-75
2022/03/19 10:47:04;;;;;;;515.45;115.78;;;;;;;;;;8467081;28;20452;-75
2022/03/19 10:51:09;;;;;;;19.30;10.40;;;;;;;;;;8466210;28;20055;-77
2022/03/19 10:55:15;;;;;;;19.90;11.50;;;;;;;;;;8466685;28;20043;-75
2022/03/19 10:59:19;;;;;;;28.52;15.15;;;;;;;;;;8465481;28;20051;-73
2022/03/19 11:03:32;;;;;;;23.98;11.90;;;;;;;;;;8456288;28;20040;-75
2022/03/19 11:07:55;;;;;;;16.45;9.55;;;;;;;;;;8450625;28;20048;-75
2022/03/19 11:12:24;;;;;;;21.02;10.38;;;;;;;;;;8461607;28;20094;-76
2022/03/19 11:17:23;;;;;;;20.45;10.77;;;;;;;;;;8463316;28;20056;-75
2022/03/19 11:21:20;;;;;;;20.63;12.52;;;;;;;;;;8455318;28;20054;-73
2022/03/19 11:25:44;;;;;;;21.42;11.45;;;;;;;;;;8463355;28;20392;-75
2022/03/19 11:30:04;;;;;;;22.65;14.30;;;;;;;;;;8455871;28;20036;-74
2022/03/19 11:34:31;;;;;;;;;;;;;;;;;;8458834;28;20483;-75
2022/03/19 11:39:00;;;;;;;28.85;18.60;;;;;;;;;;8456511;28;19924;-77
2022/03/19 11:43:16;;;;;;;15.90;8.20;;;;;;;;;;8464638;28;20054;-87
2022/03/19 11:47:41;;;;;;;16.75;9.35;;;;;;;;;;8458593;28;20036;-88
2022/03/19 11:51:47;;;;;;;19.42;9.75;;;;;;;;;;8461165;28;20403;-86
2022/03/19 11:56:08;;;;;;;19.10;10.27;;;;;;;;;;8459025;28;20040;-88
2022/03/19 12:00:14;;;;;;;16.65;9.98;;;;;;;;;;8456564;28;20058;-90
2022/03/19 12:04:21;;;;;;;29.90;14.07;;;;;;;;;;8463348;28;20047;-88
2022/03/19 12:08:26;;;;;;;15.60;8.60;;;;;;;;;;8472395;28;20044;-87
2022/03/19 12:12:29;;;;;;;22.17;11.73;;;;;;;;;;8473724;28;20052;-87
2022/03/19 12:16:43;;;;;;;50.40;20.58;;;;;;;;;;8466161;28;20097;-90
2022/03/19 12:20:51;;;;;;;28.60;13.75;;;;;;;;;;8473034;28;20051;-85
2022/03/19 12:25:13;;;;;;;16.98;10.48;;;;;;;;;;8464411;28;20472;-86
2022/03/19 12:29:18;;;;;;;17.30;9.77;;;;;;;;;;8465352;28;20087;-87
2022/03/19 12:33:31;;;;;;;16.70;8.98;;;;;;;;;;8470222;28;20043;-85
2022/03/19 12:37:48;;;;;;;18.42;9.95;;;;;;;;;;8472495;28;20036;-86
2022/03/19 12:41:51;;;;;;;27.38;13.05;;;;;;;;;;8472459;28;20052;-87
2022/03/19 12:45:59;;;;;;;18.75;10.52;;;;;;;;;;8462447;28;20151;-85
2022/03/19 12:50:06;;;;;;;21.25;11.13;;;;;;;;;;8478377;28;20035;-88
2022/03/19 12:54:26;;;;;;;22.88;11.57;;;;;;;;;;8479622;28;20040;-86
2022/03/19 12:58:39;;;;;;;18.77;9.23;;;;;;;;;;8471708;28;20043;-86
2022/03/19 13:02:50;;;;;;;20.63;10.25;;;;;;;;;;8477847;28;20071;-85
2022/03/19 13:06:55;;;;;;;17.05;9.73;;;;;;;;;;8474141;28;20137;-87
2022/03/19 13:11:00;;;;;;;19.17;10.15;;;;;;;;;;8457461;28;20054;-86
2022/03/19 13:15:03;;;;;;;25.50;13.18;;;;;;;;;;8457243;28;20044;-90
2022/03/19 13:19:09;;;;;;;24.90;12.02;;;;;;;;;;8471996;28;20047;-86
2022/03/19 13:23:12;;;;;;;23.27;12.40;;;;;;;;;;8446970;28;20043;-87
2022/03/19 13:27:18;;;;;;;20.77;10.43;;;;;;;;;;8466492;27;20074;-89
2022/03/19 13:31:21;;;;;;;18.45;10.18;;;;;;;;;;8464756;28;20067;-92
2022/03/19 13:35:39;;;;;;;20.55;11.05;;;;;;;;;;8459654;28;20044;-91
2022/03/19 13:39:43;;;;;;;22.20;12.18;;;;;;;;;;8449520;28;20040;-89
2022/03/19 13:43:48;;;;;;;24.30;12.57;;;;;;;;;;8472980;28;20418;-88
2022/03/19 13:47:52;;;;;;;25.80;12.15;;;;;;;;;;8440898;28;20044;-87
2022/03/19 13:51:56;;;;;;;21.98;12.55;;;;;;;;;;8452976;28;20494;-84
2022/03/19 13:56:00;;;;;;;20.42;11.43;;;;;;;;;;8466650;28;20043;-88
2022/03/19 14:00:12;;;;;;;20.33;11.88;;;;;;;;;;8463919;28;20406;-90
2022/03/19 14:04:19;;;;;;;19.17;11.05;;;;;;;;;;8462638;28;20048;-85
2022/03/19 14:08:24;;;;;;;23.75;12.15;;;;;;;;;;8447553;28;20388;-88
2022/03/19 14:12:34;;;;;;;19.95;11.45;;;;;;;;;;8454754;28;20068;-94
2022/03/19 14:16:55;;;;;;;24.45;12.50;;;;;;;;;;8442214;28;20083;-91
2022/03/19 14:21:02;;;;;;;18.52;10.57;;;;;;;;;;8469089;28;20040;-89
2022/03/19 14:25:07;;;;;;;16.42;9.77;;;;;;;;;;8451721;28;20039;-92
2022/03/19 14:29:11;;;;;;;23.45;11.07;;;;;;;;;;8463571;28;20125;-93
2022/03/19 14:33:17;;;;;;;18.13;9.32;;;;;;;;;;8467624;28;20055;-85
2022/03/19 14:37:20;;;;;;;19.30;10.13;;;;;;;;;;8449965;28;20069;-90
2022/03/19 14:41:23;;;;;;;26.23;13.20;;;;;;;;;;8450092;28;20047;-86
2022/03/19 14:45:26;;;;;;;26.55;13.80;;;;;;;;;;8453747;28;20069;-92
2022/03/19 14:49:31;;;;;;;26.13;12.60;;;;;;;;;;8455328;28;20050;-89
2022/03/19 14:53:36;;;;;;;21.20;11.50;;;;;;;;;;8464583;28;20051;-85
2022/03/19 14:57:39;;;;;;;21.50;9.93;;;;;;;;;;8440807;28;20448;-87
2022/03/19 15:01:42;;;;;;;19.30;10.32;;;;;;;;;;8442872;28;20055;-86
2022/03/19 15:05:47;;;;;;;16.80;9.95;;;;;;;;;;8459465;28;20050;-86
2022/03/19 15:09:50;;;;;;;18.40;9.90;;;;;;;;;;8460917;28;20104;-90
2022/03/19 15:13:54;;;;;;;15.68;9.32;;;;;;;;;;8470004;28;20050;-92
2022/03/19 15:17:57;;;;;;;19.75;9.57;;;;;;;;;;8463873;28;20048;-91
2022/03/19 15:22:04;;;;;;;16.70;9.80;;;;;;;;;;8453664;28;20043;-88
2022/03/19 15:26:07;;;;;;;19.02;9.40;;;;;;;;;;8461492;28;20123;-88
2022/03/19 15:30:12;;;;;;;17.05;10.60;;;;;;;;;;8450258;28;20052;-90
2022/03/19 15:34:15;;;;;;;17.98;9.93;;;;;;;;;;8476370;28;20043;-88
2022/03/19 15:38:20;;;;;;;31.67;15.05;;;;;;;;;;8456933;28;20040;-92
2022/03/19 15:42:26;;;;;;;29.85;13.85;;;;;;;;;;8460556;28;20091;-86
2022/03/19 15:46:31;;;;;;;29.13;14.45;;;;;;;;;;8462216;28;20380;-85
2022/03/19 15:50:40;;;;;;;22.63;11.23;;;;;;;;;;8448447;28;20090;-89
2022/03/19 15:54:49;;;;;;;18.60;10.13;;;;;;;;;;8446776;28;20047;-85
2022/03/19 15:58:56;;;;;;;22.73;11.73;;;;;;;;;;8454681;28;20122;-84
2022/03/19 16:03:06;;;;;;;23.48;13.07;;;;;;;;;;8441006;28;20491;-84
2022/03/19 16:07:11;;;;;;;21.65;10.88;;;;;;;;;;8457608;28;20487;-86
2022/03/19 16:11:20;;;;;;;43.28;18.98;;;;;;;;;;8437705;28;20043;-85
2022/03/19 16:15:23;;;;;;;27.08;11.95;;;;;;;;;;8460512;28;20047;-86
2022/03/19 16:19:30;;;;;;;48.58;19.35;;;;;;;;;;8457348;28;20044;-84
2022/03/19 16:23:40;;;;;;;30.55;15.93;;;;;;;;;;8457070;28;20109;-83
2022/03/19 16:27:59;;;;;;;47.58;16.58;;;;;;;;;;8458269;28;20039;-84
2022/03/19 16:32:03;;;;;;;325.83;93.97;;;;;;;;;;8463011;28;20138;-92
2022/03/19 16:36:09;;;;;;;24.70;12.45;;;;;;;;;;8458892;28;20035;-84
2022/03/19 16:40:16;;;;;;;43.75;19.17;;;;;;;;;;8462167;28;20039;-85
2022/03/19 16:44:27;;;;;;;43.10;25.02;;;;;;;;;;8458435;28;20044;-88
2022/03/19 16:48:33;;;;;;;48.90;21.63;;;;;;;;;;8461212;28;20055;-85
2022/03/19 16:52:38;;;;;;;46.08;24.48;;;;;;;;;;8456832;28;20449;-85
2022/03/19 16:56:47;;;;;;;76.85;36.95;;;;;;;;;;8477246;28;20479;-88
2022/03/19 17:00:53;;;;;;;44.30;19.50;;;;;;;;;;8476679;28;20047;-93
2022/03/19 17:04:56;;;;;;;60.97;29.95;;;;;;;;;;8478189;28;20055;-89
2022/03/19 17:09:00;;;;;;;42.60;23.65;;;;;;;;;;8476279;28;20130;-91
2022/03/19 17:13:06;;;;;;;50.58;22.00;;;;;;;;;;8476093;28;20047;-84
2022/03/19 17:17:11;;;;;;;56.53;25.75;;;;;;;;;;8476014;28;20090;-93
2022/03/19 17:21:16;;;;;;;26.08;13.90;;;;;;;;;;8485430;28;20043;-91
2022/03/19 17:25:21;;;;;;;33.97;15.32;;;;;;;;;;8469877;28;20052;-90
2022/03/19 17:29:25;;;;;;;19.65;10.60;;;;;;;;;;8486657;28;20036;-92
2022/03/19 17:33:30;;;;;;;25.25;12.90;;;;;;;;;;8485436;28;20043;-93
2022/03/19 17:37:34;;;;;;;30.80;11.68;;;;;;;;;;8481678;28;20099;-89
2022/03/19 17:41:39;;;;;;;18.02;9.85;;;;;;;;;;8482620;28;20555;-91
2022/03/19 17:45:42;;;;;;;20.33;9.70;;;;;;;;;;8483667;28;20046;-91
2022/03/19 17:49:50;;;;;;;24.15;11.25;;;;;;;;;;8480610;28;20584;-92
2022/03/19 17:53:55;;;;;;;23.50;11.70;;;;;;;;;;8461814;28;20471;-93
2022/03/19 17:57:59;;;;;;;22.35;10.95;;;;;;;;;;8479542;28;20286;-91
2022/03/19 18:02:04;;;;;;;22.77;10.93;;;;;;;;;;8460837;28;20076;-90
2022/03/19 18:06:10;;;;;;;25.25;12.05;;;;;;;;;;8484186;28;20052;-90
2022/03/19 18:10:16;;;;;;;57.00;21.13;;;;;;;;;;8483261;28;20082;-89
2022/03/19 18:14:21;;;;;;;57.92;21.30;;;;;;;;;;8482696;28;20047;-91
2022/03/19 18:18:31;;;;;;;155.18;52.47;;;;;;;;;;8482593;28;20407;-92
2022/03/19 18:22:37;;;;;;;157.98;40.45;;;;;;;;;;8479950;28;20055;-85
2022/03/19 18:26:42;;;;;;;49.03;20.75;;;;;;;;;;8460116;28;20058;-86
2022/03/19 18:30:47;;;;;;;25.30;11.85;;;;;;;;;;8475012;28;20059;-89
2022/03/19 18:34:56;;;;;;;17.55;8.98;;;;;;;;;;8458363;28;20139;-92
2022/03/19 18:39:09;;;;;;;35.33;15.13;;;;;;;;;;8458080;28;20059;-92
2022/03/19 18:43:13;;;;;;;25.48;12.15;;;;;;;;;;8475155;28;20051;-91
2022/03/19 18:47:23;;;;;;;25.98;15.43;;;;;;;;;;8475436;28;20051;-93
2022/03/19 18:51:31;;;;;;;59.28;22.85;;;;;;;;;;8463821;28;20143;-84
2022/03/19 18:55:38;;;;;;;116.15;28.65;;;;;;;;;;8465503;28;20042;-85
2022/03/19 18:59:44;;;;;;;19.42;10.35;;;;;;;;;;8461579;28;20047;-91
2022/03/19 19:04:14;;;;;;;24.15;10.45;;;;;;;;;;8467231;28;20054;-85
2022/03/19 19:08:39;;;;;;;20.73;9.52;;;;;;;;;;8457526;28;20065;-85
2022/03/19 19:12:56;;;;;;;23.88;11.73;;;;;;;;;;8460640;28;20040;-85
2022/03/19 19:17:01;;;;;;;23.40;12.63;;;;;;;;;;8452873;28;20066;-94
2022/03/19 19:21:06;;;;;;;42.88;15.43;;;;;;;;;;8468475;28;20047;-86
2022/03/19 19:25:16;;;;;;;50.22;22.10;;;;;;;;;;8470430;28;20052;-85
2022/03/19 19:29:28;;;;;;;67.00;19.47;;;;;;;;;;8459240;28;20054;-91
2022/03/19 19:33:47;;;;;;;36.90;17.60;;;;;;;;;;8447262;28;20048;-84
2022/03/19 19:38:12;;;;;;;154.70;35.08;;;;;;;;;;8449990;28;20504;-92
2022/03/19 19:42:19;;;;;;;252.75;57.50;;;;;;;;;;8451620;28;20047;-84
2022/03/19 19:46:32;;;;;;;55.28;18.80;;;;;;;;;;8451502;28;20075;-84
2022/03/19 19:50:41;;;;;;;36.05;13.70;;;;;;;;;;8454008;28;20039;-84
2022/03/19 19:54:48;;;;;;;27.42;12.07;;;;;;;;;;8457230;28;20040;-87
2022/03/19 19:59:04;;;;;;;313.15;69.20;;;;;;;;;;8456901;28;20177;-94
2022/03/19 20:03:17;;;;;;;286.30;63.20;;;;;;;;;;8461595;28;20044;-92
2022/03/19 20:07:40;;;;;;;55.53;20.52;;;;;;;;;;8457515;28;20055;-88
2022/03/19 20:12:06;;;;;;;59.25;19.92;;;;;;;;;;8466682;28;20422;-85
2022/03/19 20:16:09;;;;;;;25.17;10.70;;;;;;;;;;8464510;28;20518;-93
2022/03/19 20:20:18;;;;;;;47.35;16.13;;;;;;;;;;8473560;28;20073;-92
2022/03/19 20:24:22;;;;;;;65.28;21.23;;;;;;;;;;8471529;28;20043;-92
2022/03/19 20:28:25;;;;;;;37.85;15.90;;;;;;;;;;8470277;28;20056;-91
2022/03/19 20:32:28;;;;;;;36.85;15.40;;;;;;;;;;8470829;28;20040;-92
2022/03/19 20:36:34;;;;;;;55.60;21.27;;;;;;;;;;8467812;28;20507;-91
2022/03/19 20:40:37;;;;;;;43.80;21.23;;;;;;;;;;8467710;28;20051;-93
2022/03/19 20:44:42;;;;;;;33.47;15.48;;;;;;;;;;8476348;28;20036;-83
2022/03/19 20:48:47;;;;;;;31.50;12.15;;;;;;;;;;8493087;28;20024;-91
2022/03/19 20:52:54;;;;;;;138.95;31.65;;;;;;;;;;8502829;28;20032;-85
2022/03/19 20:56:57;;;;;;;127.95;32.28;;;;;;;;;;8510403;28;20047;-87
2022/03/19 21:01:01;;;;;;;79.72;28.80;;;;;;;;;;8496263;28;20448;-91
2022/03/19 21:05:04;;;;;;;55.45;24.50;;;;;;;;;;8481344;28;20127;-91
2022/03/19 21:09:10;;;;;;;44.22;17.98;;;;;;;;;;8481790;28;20060;-94
2022/03/19 21:13:17;;;;;;;36.53;15.00;;;;;;;;;;8483237;28;20084;-90
2022/03/19 21:17:23;;;;;;;30.75;14.30;;;;;;;;;;8484661;28;20060;-93
2022/03/19 21:21:29;;;;;;;35.38;13.60;;;;;;;;;;8463322;28;20052;-82
2022/03/19 21:25:35;;;;;;;35.40;13.73;;;;;;;;;;8462418;28;20058;-82
2022/03/19 21:29:41;;;;;;;36.47;16.88;;;;;;;;;;8479596;28;20047;-83
2022/03/19 21:33:47;;;;;;;48.55;22.25;;;;;;;;;;8463260;28;20059;-92
2022/03/19 21:37:56;;;;;;;41.50;18.30;;;;;;;;;;8469351;28;20056;-91
2022/03/19 21:42:02;;;;;;;37.60;15.48;;;;;;;;;;8485086;28;20409;-93
2022/03/19 21:46:06;;;;;;;38.92;15.45;;;;;;;;;;8486802;28;20035;-83
2022/03/19 21:50:10;;;;;;;38.50;16.17;;;;;;;;;;8479586;28;20044;-81
2022/03/19 21:54:13;;;;;;;49.42;20.23;;;;;;;;;;8461765;28;20048;-85
2022/03/19 21:58:19;;;;;;;45.33;20.00;;;;;;;;;;8481295;28;20058;-92
2022/03/19 22:02:22;;;;;;;45.70;19.65;;;;;;;;;;8481215;28;20036;-83
2022/03/19 22:06:29;;;;;;;51.92;20.08;;;;;;;;;;8479970;28;20049;-88
2022/03/19 22:10:33;;;;;;;44.50;18.48;;;;;;;;;;8480911;28;20044;-91
2022/03/19 22:14:38;;;;;;;50.05;19.88;;;;;;;;;;8473899;28;20040;-83
2022/03/19 22:18:40;;;;;;;54.97;21.05;;;;;;;;;;8444632;28;20071;-91
2022/03/19 22:22:46;;;;;;;40.90;16.33;;;;;;;;;;8446805;28;20403;-84
2022/03/19 22:26:48;;;;;;;44.88;17.58;;;;;;;;;;8446505;28;20044;-90
2022/03/19 22:30:54;;;;;;;51.60;19.45;;;;;;;;;;8446744;28;20059;-83
2022/03/19 22:34:57;;;;;;;51.83;19.15;;;;;;;;;;8432890;28;20040;-85
2022/03/19 22:39:00;;;;;;;43.08;16.52;;;;;;;;;;8434516;28;20040;-83
2022/03/19 22:43:03;;;;;;;43.90;18.25;;;;;;;;;;8436007;28;20058;-83
2022/03/19 22:47:09;;;;;;;42.42;18.95;;;;;;;;;;8425369;28;20594;-83
2022/03/19 22:51:11;;;;;;;40.53;16.75;;;;;;;;;;8425955;28;20055;-83
2022/03/19 22:55:15;;;;;;;37.75;15.98;;;;;;;;;;8437895;28;20081;-83
2022/03/19 22:59:18;;;;;;;35.13;15.88;;;;;;;;;;8435545;28;20506;-82
2022/03/19 23:03:23;;;;;;;38.45;15.60;;;;;;;;;;8443502;28;20046;-83
2022/03/19 23:07:27;;;;;;;37.35;16.25;;;;;;;;;;8429516;28;20129;-82
2022/03/19 23:11:30;;;;;;;40.13;16.25;;;;;;;;;;8418557;28;20040;-83
2022/03/19 23:15:33;;;;;;;64.18;24.10;;;;;;;;;;8413522;28;20044;-88
2022/03/19 23:19:39;;;;;;;51.90;22.90;;;;;;;;;;8445127;28;20119;-87
2022/03/19 23:23:42;;;;;;;41.47;16.20;;;;;;;;;;8441686;28;20139;-90
2022/03/19 23:27:45;;;;;;;46.17;17.02;;;;;;;;;;8442417;28;20040;-92
2022/03/19 23:31:47;;;;;;;38.13;16.80;;;;;;;;;;8441065;28;20055;-93
2022/03/19 23:35:52;;;;;;;43.83;17.55;;;;;;;;;;8424279;28;20091;-89
2022/03/19 23:39:54;;;;;;;42.33;17.05;;;;;;;;;;8442036;28;20055;-83
2022/03/19 23:43:57;;;;;;;35.10;15.70;;;;;;;;;;8465628;28;20066;-83
2022/03/19 23:48:00;;;;;;;32.42;14.73;;;;;;;;;;8437734;22;20107;-92
2022/03/19 23:52:05;;;;;;;39.17;15.60;;;;;;;;;;8317334;28;20050;-84
2022/03/19 23:56:07;;;;;;;35.45;15.38;;;;;;;;;;8310002;28;20037;-84
